sensor_id;sensor_type;location;lat;lon;timestamp;pressure;altitude;pressure_sealevel;temperature;humidity
51229;BME280;37304;52.216;6.874;2023-03-18T00:01:03;100440.31;;;11.61;100.00
51229;BME280;37304;52.216;6.874;2023-03-18T00:06:09;100444.69;;;11.60;100.00
51229;BME280;37304;52.216;6.874;2023-03-18T00:11:12;100438.56;;;11.61;100.00
51229;BME280;37304;52.216;6.874;2023-03-18T00:16:13;100440.50;;;11.53;100.00
51229;BME280;37304;52.216;6.874;2023-03-18T00:21:14;100433.84;;;11.43;100.00
51229;BME280;37304;52.216;6.874;2023-03-18T00:26:15;100438.38;;;11.36;100.00
51229;BME280;37304;52.216;6.874;2023-03-18T00:31:16;100437.66;;;11.31;100.00
51229;BME280;37304;52.216;6.874;2023-03-18T00:36:17;100441.16;;;11.30;100.00
51229;BME280;37304;52.216;6.874;2023-03-18T00:41:18;100434.34;;;11.24;100.00
51229;BME280;37304;52.216;6.874;2023-03-18T00:46:22;100433.53;;;11.22;100.00
51229;BME280;37304;52.216;6.874;2023-03-18T00:51:25;100445.72;;;11.20;100.00
51229;BME280;37304;52.216;6.874;2023-03-18T00:56:29;100455.34;;;11.16;100.00
51229;BME280;37304;52.216;6.874;2023-03-18T01:01:31;100450.19;;;11.15;100.00
51229;BME280;37304;52.216;6.874;2023-03-18T01:06:33;100442.47;;;11.10;100.00
51229;BME280;37304;52.216;6.874;2023-03-18T01:11:33;100441.50;;;11.16;100.00
51229;BME280;37304;52.216;6.874;2023-03-18T01:16:34;100451.00;;;11.17;100.00
51229;BME280;37304;52.216;6.874;2023-03-18T01:21:35;100451.97;;;11.13;100.00
51229;BME280;37304;52.216;6.874;2023-03-18T01:26:36;100448.72;;;11.04;100.00
51229;BME280;37304;52.216;6.874;2023-03-18T01:31:37;100446.34;;;10.95;100.00
51229;BME280;37304;52.216;6.874;2023-03-18T01:36:37;100456.91;;;10.87;100.00
51229;BME280;37304;52.216;6.874;2023-03-18T01:41:38;100459.53;;;10.86;100.00
51229;BME280;37304;52.216;6.874;2023-03-18T01:46:42;100469.13;;;10.84;100.00
51229;BME280;37304;52.216;6.874;2023-03-18T01:51:50;100464.81;;;10.83;100.00
51229;BME280;37304;52.216;6.874;2023-03-18T01:56:51;100458.84;;;10.79;100.00
51229;BME280;37304;52.216;6.874;2023-03-18T02:02:05;100456.41;;;10.73;100.00
51229;BME280;37304;52.216;6.874;2023-03-18T02:07:13;100466.81;;;10.71;100.00
51229;BME280;37304;52.216;6.874;2023-03-18T02:12:15;100478.25;;;10.64;100.00
51229;BME280;37304;52.216;6.874;2023-03-18T02:17:21;100473.94;;;10.63;100.00
51229;BME280;37304;52.216;6.874;2023-03-18T02:22:34;100474.91;;;10.59;100.00
51229;BME280;37304;52.216;6.874;2023-03-18T02:27:42;100475.94;;;10.52;100.00
51229;BME280;37304;52.216;6.874;2023-03-18T02:32:47;100489.84;;;10.49;100.00
51229;BME280;37304;52.216;6.874;2023-03-18T02:37:49;100487.34;;;10.44;100.00
51229;BME280;37304;52.216;6.874;2023-03-18T02:42:50;100478.78;;;10.39;100.00
51229;BME280;37304;52.216;6.874;2023-03-18T02:47:51;100498.69;;;10.40;100.00
51229;BME280;37304;52.216;6.874;2023-03-18T02:52:52;100493.44;;;10.43;100.00
51229;BME280;37304;52.216;6.874;2023-03-18T02:57:52;100496.03;;;10.43;100.00
51229;BME280;37304;52.216;6.874;2023-03-18T03:02:52;100493.50;;;10.40;100.00
51229;BME280;37304;52.216;6.874;2023-03-18T03:07:53;100496.09;;;10.40;100.00
51229;BME280;37304;52.216;6.874;2023-03-18T03:12:53;100492.66;;;10.37;100.00
51229;BME280;37304;52.216;6.874;2023-03-18T03:17:53;100494.34;;;10.39;100.00
51229;BME280;37304;52.216;6.874;2023-03-18T03:22:54;100503.94;;;10.35;100.00
51229;BME280;37304;52.216;6.874;2023-03-18T03:27:54;100519.59;;;10.34;100.00
51229;BME280;37304;52.216;6.874;2023-03-18T03:32:55;100517.94;;;10.30;100.00
51229;BME280;37304;52.216;6.874;2023-03-18T03:37:55;100525.81;;;10.25;100.00
51229;BME280;37304;52.216;6.874;2023-03-18T03:42:56;100525.94;;;10.17;100.00
51229;BME280;37304;52.216;6.874;2023-03-18T03:47:57;100540.84;;;10.09;100.00
51229;BME280;37304;52.216;6.874;2023-03-18T03:52:57;100540.13;;;10.02;100.00
51229;BME280;37304;52.216;6.874;2023-03-18T03:57:58;100553.22;;;9.96;100.00
51229;BME280;37304;52.216;6.874;2023-03-18T04:03:00;100550.69;;;9.91;100.00
51229;BME280;37304;52.216;6.874;2023-03-18T04:08:00;100557.72;;;9.85;100.00
51229;BME280;37304;52.216;6.874;2023-03-18T04:13:01;100551.69;;;9.84;100.00
51229;BME280;37304;52.216;6.874;2023-03-18T04:18:02;100551.81;;;9.78;100.00
51229;BME280;37304;52.216;6.874;2023-03-18T04:23:06;100549.16;;;9.81;100.00
51229;BME280;37304;52.216;6.874;2023-03-18T04:28:06;100557.84;;;9.79;100.00
51229;BME280;37304;52.216;6.874;2023-03-18T04:33:07;100568.25;;;9.77;100.00
51229;BME280;37304;52.216;6.874;2023-03-18T04:38:09;100565.72;;;9.74;100.00
51229;BME280;37304;52.216;6.874;2023-03-18T04:43:09;100563.09;;;9.75;100.00
51229;BME280;37304;52.216;6.874;2023-03-18T04:48:10;100565.84;;;9.68;100.00
51229;BME280;37304;52.216;6.874;2023-03-18T04:53:10;100559.78;;;9.67;100.00
51229;BME280;37304;52.216;6.874;2023-03-18T04:58:11;100559.75;;;9.69;100.00
51229;BME280;37304;52.216;6.874;2023-03-18T05:03:11;100561.53;;;9.67;100.00
51229;BME280;37304;52.216;6.874;2023-03-18T05:08:12;100558.00;;;9.69;100.00
51229;BME280;37304;52.216;6.874;2023-03-18T05:13:12;100566.72;;;9.65;100.00
51229;BME280;37304;52.216;6.874;2023-03-18T05:18:12;100570.19;;;9.66;100.00
51229;BME280;37304;52.216;6.874;2023-03-18T05:23:13;100575.34;;;9.67;100.00
51229;BME280;37304;52.216;6.874;2023-03-18T05:28:13;100574.56;;;9.62;100.00
51229;BME280;37304;52.216;6.874;2023-03-18T05:33:14;100576.28;;;9.65;100.00
51229;BME280;37304;52.216;6.874;2023-03-18T05:38:14;100580.56;;;9.66;100.00
51229;BME280;37304;52.216;6.874;2023-03-18T05:43:14;100583.16;;;9.66;100.00
51229;BME280;37304;52.216;6.874;2023-03-18T05:48:15;100591.84;;;9.65;100.00
51229;BME280;37304;52.216;6.874;2023-03-18T05:53:15;100597.06;;;9.61;100.00
51229;BME280;37304;52.216;6.874;2023-03-18T05:58:15;100612.59;;;9.63;100.00
51229;BME280;37304;52.216;6.874;2023-03-18T06:03:16;100608.41;;;9.56;100.00
51229;BME280;37304;52.216;6.874;2023-03-18T06:08:17;100620.53;;;9.54;100.00
51229;BME280;37304;52.216;6.874;2023-03-18T06:13:17;100631.84;;;9.48;100.00
51229;BME280;37304;52.216;6.874;2023-03-18T06:18:18;100633.66;;;9.43;100.00
51229;BME280;37304;52.216;6.874;2023-03-18T06:23:18;100642.28;;;9.45;100.00
51229;BME280;37304;52.216;6.874;2023-03-18T06:28:18;100636.16;;;9.49;100.00
51229;BME280;37304;52.216;6.874;2023-03-18T06:33:19;100644.81;;;9.50;100.00
51229;BME280;37304;52.216;6.874;2023-03-18T06:38:19;100656.91;;;9.49;100.00
51229;BME280;37304;52.216;6.874;2023-03-18T06:43:20;100660.38;;;9.48;100.00
51229;BME280;37304;52.216;6.874;2023-03-18T06:48:20;100668.16;;;9.48;100.00
51229;BME280;37304;52.216;6.874;2023-03-18T06:53:21;100680.31;;;9.47;100.00
51229;BME280;37304;52.216;6.874;2023-03-18T06:58:21;100682.81;;;9.54;100.00
51229;BME280;37304;52.216;6.874;2023-03-18T07:03:22;100685.25;;;9.63;100.00
51229;BME280;37304;52.216;6.874;2023-03-18T07:08:22;100691.06;;;9.79;100.00
51229;BME280;37304;52.216;6.874;2023-03-18T07:13:23;100701.44;;;9.79;100.00
51229;BME280;37304;52.216;6.874;2023-03-18T07:18:23;100703.94;;;9.85;100.00
51229;BME280;37304;52.216;6.874;2023-03-18T07:23:24;100706.41;;;9.93;100.00
51229;BME280;37304;52.216;6.874;2023-03-18T07:28:26;100702.78;;;10.03;100.00
51229;BME280;37304;52.216;6.874;2023-03-18T07:33:26;100697.38;;;10.16;100.00
51229;BME280;37304;52.216;6.874;2023-03-18T07:38:27;100703.25;;;10.27;100.00
51229;BME280;37304;52.216;6.874;2023-03-18T07:43:28;100706.75;;;10.25;100.00
51229;BME280;37304;52.216;6.874;2023-03-18T07:48:29;100709.34;;;10.25;100.00
51229;BME280;37304;52.216;6.874;2023-03-18T07:53:29;100715.38;;;10.27;100.00
51229;BME280;37304;52.216;6.874;2023-03-18T07:58:30;100720.44;;;10.36;100.00
51229;BME280;37304;52.216;6.874;2023-03-18T08:03:30;100729.94;;;10.37;100.00
51229;BME280;37304;52.216;6.874;2023-03-18T08:08:31;100729.84;;;10.43;100.00
51229;BME280;37304;52.216;6.874;2023-03-18T08:13:31;100721.88;;;10.53;100.00
51229;BME280;37304;52.216;6.874;2023-03-18T08:18:33;100733.56;;;10.75;100.00
51229;BME280;37304;52.216;6.874;2023-03-18T08:23:34;100729.84;;;10.90;100.00
51229;BME280;37304;52.216;6.874;2023-03-18T08:28:35;100733.22;;;11.36;100.00
51229;BME280;37304;52.216;6.874;2023-03-18T08:33:35;100729.06;;;11.69;100.00
51229;BME280;37304;52.216;6.874;2023-03-18T08:38:36;100728.16;;;12.42;100.00
51229;BME280;37304;52.216;6.874;2023-03-18T08:43:36;100719.03;;;12.90;100.00
51229;BME280;37304;52.216;6.874;2023-03-18T08:48:36;100722.47;;;12.91;100.00
51229;BME280;37304;52.216;6.874;2023-03-18T08:53:37;100733.75;;;12.93;100.00
51229;BME280;37304;52.216;6.874;2023-03-18T08:58:37;100742.75;;;13.43;100.00
51229;BME280;37304;52.216;6.874;2023-03-18T09:03:37;100738.34;;;13.73;100.00
51229;BME280;37304;52.216;6.874;2023-03-18T09:08:38;100745.69;;;13.89;100.00
51229;BME280;37304;52.216;6.874;2023-03-18T09:13:38;100751.41;;;13.45;100.00
51229;BME280;37304;52.216;6.874;2023-03-18T09:18:39;100748.25;;;13.33;100.00
51229;BME280;37304;52.216;6.874;2023-03-18T09:23:39;100741.72;;;14.05;100.00
51229;BME280;37304;52.216;6.874;2023-03-18T09:28:40;100751.34;;;14.55;100.00
51229;BME280;37304;52.216;6.874;2023-03-18T09:33:41;100762.47;;;15.35;100.00
51229;BME280;37304;52.216;6.874;2023-03-18T09:38:42;100762.63;;;15.54;100.00
51229;BME280;37304;52.216;6.874;2023-03-18T09:44:02;100758.72;;;15.87;100.00
51229;BME280;37304;52.216;6.874;2023-03-18T09:49:33;100755.91;;;18.63;100.00
51229;BME280;37304;52.216;6.874;2023-03-18T10:05:22;100766.91;;;17.99;100.00
51229;BME280;37304;52.216;6.874;2023-03-18T10:10:29;100768.13;;;18.64;100.00
51229;BME280;37304;52.216;6.874;2023-03-18T10:15:36;100760.47;;;19.59;100.00
51229;BME280;37304;52.216;6.874;2023-03-18T10:26:15;100757.50;;;21.44;100.00
51229;BME280;37304;52.216;6.874;2023-03-18T10:31:46;100765.06;;;20.77;100.00
51229;BME280;37304;52.216;6.874;2023-03-18T10:42:22;100770.97;;;19.75;100.00
51229;BME280;37304;52.216;6.874;2023-03-18T10:47:27;100769.38;;;19.72;100.00
51229;BME280;37304;52.216;6.874;2023-03-18T10:52:46;100767.28;;;21.56;100.00
51229;BME280;37304;52.216;6.874;2023-03-18T10:57:47;100764.06;;;20.35;100.00
51229;BME280;37304;52.216;6.874;2023-03-18T11:02:48;100770.63;;;22.00;100.00
51229;BME280;37304;52.216;6.874;2023-03-18T11:08:29;100769.69;;;20.74;100.00
51229;BME280;37304;52.216;6.874;2023-03-18T11:13:31;100762.16;;;19.28;100.00
51229;BME280;37304;52.216;6.874;2023-03-18T11:18:32;100756.34;;;20.46;100.00
51229;BME280;37304;52.216;6.874;2023-03-18T11:23:38;100750.88;;;22.19;100.00
51229;BME280;37304;52.216;6.874;2023-03-18T11:29:04;100752.81;;;21.34;100.00
51229;BME280;37304;52.216;6.874;2023-03-18T11:34:09;100751.25;;;21.45;97.36
51229;BME280;37304;52.216;6.874;2023-03-18T11:39:11;100746.63;;;21.76;94.85
51229;BME280;37304;52.216;6.874;2023-03-18T11:44:31;100738.44;;;22.73;89.51
51229;BME280;37304;52.216;6.874;2023-03-18T11:49:32;100731.94;;;23.89;83.71
51229;BME280;37304;52.216;6.874;2023-03-18T12:05:20;100722.00;;;25.08;66.77
51229;BME280;37304;52.216;6.874;2023-03-18T12:10:53;100724.91;;;23.76;67.52
51229;BME280;37304;52.216;6.874;2023-03-18T12:26:33;100726.84;;;24.10;62.30
51229;BME280;37304;52.216;6.874;2023-03-18T12:32:05;100726.38;;;23.80;66.31
51229;BME280;37304;52.216;6.874;2023-03-18T12:47:47;100724.00;;;23.03;63.06
51229;BME280;37304;52.216;6.874;2023-03-18T12:52:52;100720.63;;;19.96;78.95
51229;BME280;37304;52.216;6.874;2023-03-18T12:58:09;100720.16;;;21.90;75.97
51229;BME280;37304;52.216;6.874;2023-03-18T13:08:48;100701.69;;;21.06;73.70
51229;BME280;37304;52.216;6.874;2023-03-18T13:13:55;100712.09;;;20.80;76.53
51229;BME280;37304;52.216;6.874;2023-03-18T13:19:00;100703.78;;;21.71;72.33
51229;BME280;37304;52.216;6.874;2023-03-18T13:24:20;100707.78;;;21.21;75.93
51229;BME280;37304;52.216;6.874;2023-03-18T13:29:39;100711.81;;;21.00;75.05
51229;BME280;37304;52.216;6.874;2023-03-18T13:40:12;100692.78;;;21.64;71.84
51229;BME280;37304;52.216;6.874;2023-03-18T13:45:39;100701.47;;;21.24;73.88
51229;BME280;37304;52.216;6.874;2023-03-18T13:50:42;100701.09;;;19.52;82.83
51229;BME280;37304;52.216;6.874;2023-03-18T13:55:52;100703.09;;;18.82;86.18
51229;BME280;37304;52.216;6.874;2023-03-18T14:16:17;100689.16;;;17.58;100.00
51229;BME280;37304;52.216;6.874;2023-03-18T14:21:27;100690.28;;;17.16;100.00
51229;BME280;37304;52.216;6.874;2023-03-18T14:26:29;100687.00;;;16.92;100.00
51229;BME280;37304;52.216;6.874;2023-03-18T14:31:49;100693.25;;;16.89;100.00
51229;BME280;37304;52.216;6.874;2023-03-18T14:41:54;100678.25;;;16.72;100.00
51229;BME280;37304;52.216;6.874;2023-03-18T14:47:03;100683.88;;;16.64;100.00
51229;BME280;37304;52.216;6.874;2023-03-18T14:52:35;100677.28;;;16.54;100.00
51229;BME280;37304;52.216;6.874;2023-03-18T14:57:35;100670.84;;;16.42;100.00
51229;BME280;37304;52.216;6.874;2023-03-18T15:02:37;100669.00;;;16.44;100.00
51229;BME280;37304;52.216;6.874;2023-03-18T15:07:39;100664.06;;;16.57;100.00
51229;BME280;37304;52.216;6.874;2023-03-18T15:12:40;100670.56;;;16.48;100.00
51229;BME280;37304;52.216;6.874;2023-03-18T15:17:44;100664.44;;;16.48;100.00
51229;BME280;37304;52.216;6.874;2023-03-18T15:22:45;100667.47;;;16.38;100.00
51229;BME280;37304;52.216;6.874;2023-03-18T15:27:47;100672.03;;;16.14;100.00
51229;BME280;37304;52.216;6.874;2023-03-18T15:32:48;100666.00;;;15.91;100.00
51229;BME280;37304;52.216;6.874;2023-03-18T15:48:31;100686.84;;;15.27;100.00
51229;BME280;37304;52.216;6.874;2023-03-18T15:53:42;100689.34;;;15.07;100.00
51229;BME280;37304;52.216;6.874;2023-03-18T15:58:44;100694.09;;;14.97;100.00
51229;BME280;37304;52.216;6.874;2023-03-18T16:03:44;100703.59;;;14.76;100.00
51229;BME280;37304;52.216;6.874;2023-03-18T16:08:45;100698.66;;;14.66;100.00
51229;BME280;37304;52.216;6.874;2023-03-18T16:13:46;100694.66;;;14.56;100.00
51229;BME280;37304;52.216;6.874;2023-03-18T16:18:48;100695.47;;;14.58;100.00
51229;BME280;37304;52.216;6.874;2023-03-18T16:23:48;100699.88;;;14.56;100.00
51229;BME280;37304;52.216;6.874;2023-03-18T16:28:49;100703.84;;;14.42;100.00
51229;BME280;37304;52.216;6.874;2023-03-18T16:33:49;100697.09;;;14.37;100.00
51229;BME280;37304;52.216;6.874;2023-03-18T16:38:52;100696.75;;;14.21;100.00
51229;BME280;37304;52.216;6.874;2023-03-18T16:43:53;100695.69;;;14.01;100.00
51229;BME280;37304;52.216;6.874;2023-03-18T16:48:54;100699.34;;;13.95;100.00
51229;BME280;37304;52.216;6.874;2023-03-18T16:53:55;100714.53;;;13.84;100.00
51229;BME280;37304;52.216;6.874;2023-03-18T16:58:55;100713.25;;;13.69;100.00
51229;BME280;37304;52.216;6.874;2023-03-18T17:03:57;100718.00;;;13.56;100.00
51229;BME280;37304;52.216;6.874;2023-03-18T17:08:57;100711.16;;;13.52;100.00
51229;BME280;37304;52.216;6.874;2023-03-18T17:13:57;100715.03;;;13.38;100.00
51229;BME280;37304;52.216;6.874;2023-03-18T17:18:58;100725.75;;;13.29;100.00
51229;BME280;37304;52.216;6.874;2023-03-18T17:23:58;100731.31;;;13.17;100.00
51229;BME280;37304;52.216;6.874;2023-03-18T17:28:59;100729.16;;;13.01;100.00
51229;BME280;37304;52.216;6.874;2023-03-18T17:33:59;100729.56;;;12.87;100.00
51229;BME280;37304;52.216;6.874;2023-03-18T17:39:00;100728.28;;;12.71;100.00
51229;BME280;37304;52.216;6.874;2023-03-18T17:44:00;100738.16;;;12.58;100.00
51229;BME280;37304;52.216;6.874;2023-03-18T17:49:01;100738.59;;;12.42;100.00
51229;BME280;37304;52.216;6.874;2023-03-18T17:54:03;100731.16;;;12.27;100.00
51229;BME280;37304;52.216;6.874;2023-03-18T17:59:13;100725.41;;;12.14;100.00
51229;BME280;37304;52.216;6.874;2023-03-18T18:04:19;100748.28;;;12.01;100.00
51229;BME280;37304;52.216;6.874;2023-03-18T18:09:20;100754.66;;;11.86;100.00
51229;BME280;37304;52.216;6.874;2023-03-18T18:14:25;100763.56;;;11.77;100.00
51229;BME280;37304;52.216;6.874;2023-03-18T18:19:28;100768.09;;;11.69;100.00
51229;BME280;37304;52.216;6.874;2023-03-18T18:24:29;100763.19;;;11.55;100.00
51229;BME280;37304;52.216;6.874;2023-03-18T18:29:30;100759.94;;;11.45;100.00
51229;BME280;37304;52.216;6.874;2023-03-18T18:34:31;100767.09;;;11.33;100.00
51229;BME280;37304;52.216;6.874;2023-03-18T18:39:32;100774.16;;;11.28;100.00
51229;BME280;37304;52.216;6.874;2023-03-18T18:44:32;100778.75;;;11.15;100.00
51229;BME280;37304;52.216;6.874;2023-03-18T18:49:33;100767.69;;;11.05;100.00
51229;BME280;37304;52.216;6.874;2023-03-18T18:54:34;100761.72;;;10.99;100.00
51229;BME280;37304;52.216;6.874;2023-03-18T18:59:34;100763.66;;;10.89;100.00
51229;BME280;37304;52.216;6.874;2023-03-18T19:04:35;100765.53;;;10.82;100.00
51229;BME280;37304;52.216;6.874;2023-03-18T19:09:43;100766.53;;;10.73;100.00
51229;BME280;37304;52.216;6.874;2023-03-18T19:14:45;100771.03;;;10.65;100.00
51229;BME280;37304;52.216;6.874;2023-03-18T19:19:46;100782.38;;;10.61;100.00
51229;BME280;37304;52.216;6.874;2023-03-18T19:24:47;100784.16;;;10.57;100.00
51229;BME280;37304;52.216;6.874;2023-03-18T19:29:50;100782.53;;;10.52;100.00
51229;BME280;37304;52.216;6.874;2023-03-18T19:34:52;100786.94;;;10.46;100.00
51229;BME280;37304;52.216;6.874;2023-03-18T19:39:55;100788.78;;;10.40;100.00
51229;BME280;37304;52.216;6.874;2023-03-18T19:44:55;100784.53;;;10.32;100.00
51229;BME280;37304;52.216;6.874;2023-03-18T19:49:56;100796.75;;;10.26;100.00
51229;BME280;37304;52.216;6.874;2023-03-18T19:54:57;100796.91;;;10.18;100.00
51229;BME280;37304;52.216;6.874;2023-03-18T19:59:58;100801.31;;;10.13;100.00
51229;BME280;37304;52.216;6.874;2023-03-18T20:05:01;100810.09;;;10.05;100.00
51229;BME280;37304;52.216;6.874;2023-03-18T20:10:03;100812.72;;;10.01;100.00
51229;BME280;37304;52.216;6.874;2023-03-18T20:15:26;100811.09;;;9.95;100.00
51229;BME280;37304;52.216;6.874;2023-03-18T20:20:32;100809.44;;;9.89;100.00
51229;BME280;37304;52.216;6.874;2023-03-18T20:25:37;100808.66;;;9.83;100.00
51229;BME280;37304;52.216;6.874;2023-03-18T20:30:41;100813.88;;;9.81;100.00
51229;BME280;37304;52.216;6.874;2023-03-18T20:35:43;100815.66;;;9.77;100.00
51229;BME280;37304;52.216;6.874;2023-03-18T20:40:45;100814.91;;;9.71;100.00
51229;BME280;37304;52.216;6.874;2023-03-18T20:45:49;100811.50;;;9.66;100.00
51229;BME280;37304;52.216;6.874;2023-03-18T20:50:54;100815.81;;;9.65;100.00
51229;BME280;37304;52.216;6.874;2023-03-18T20:55:57;100821.94;;;9.59;100.00
51229;BME280;37304;52.216;6.874;2023-03-18T21:00:58;100816.78;;;9.56;100.00
51229;BME280;37304;52.216;6.874;2023-03-18T21:06:01;100824.56;;;9.58;100.00
51229;BME280;37304;52.216;6.874;2023-03-18T21:11:05;100821.13;;;9.56;100.00
51229;BME280;37304;52.216;6.874;2023-03-18T21:16:13;100824.66;;;9.52;100.00
51229;BME280;37304;52.216;6.874;2023-03-18T21:21:35;100817.75;;;9.51;100.00
51229;BME280;37304;52.216;6.874;2023-03-18T21:26:37;100814.31;;;9.47;100.00
51229;BME280;37304;52.216;6.874;2023-03-18T21:31:37;100813.44;;;9.48;100.00
51229;BME280;37304;52.216;6.874;2023-03-18T21:36:40;100815.16;;;9.51;100.00
51229;BME280;37304;52.216;6.874;2023-03-18T21:41:41;100819.38;;;9.56;100.00
51229;BME280;37304;52.216;6.874;2023-03-18T21:46:41;100816.69;;;9.66;100.00
51229;BME280;37304;52.216;6.874;2023-03-18T21:51:41;100809.72;;;9.71;100.00
51229;BME280;37304;52.216;6.874;2023-03-18T21:56:42;100823.41;;;9.81;100.00
51229;BME280;37304;52.216;6.874;2023-03-18T22:01:42;100825.94;;;9.84;100.00
51229;BME280;37304;52.216;6.874;2023-03-18T22:06:42;100826.69;;;9.94;100.00
51229;BME280;37304;52.216;6.874;2023-03-18T22:11:46;100829.97;;;10.05;100.00
51229;BME280;37304;52.216;6.874;2023-03-18T22:16:49;100826.41;;;10.14;100.00
51229;BME280;37304;52.216;6.874;2023-03-18T22:21:49;100821.16;;;10.15;100.00
51229;BME280;37304;52.216;6.874;2023-03-18T22:26:50;100812.69;;;10.05;100.00
51229;BME280;37304;52.216;6.874;2023-03-18T22:31:53;100805.91;;;9.94;100.00
51229;BME280;37304;52.216;6.874;2023-03-18T22:36:53;100803.41;;;9.87;100.00
51229;BME280;37304;52.216;6.874;2023-03-18T22:41:54;100797.47;;;9.79;100.00
51229;BME280;37304;52.216;6.874;2023-03-18T22:46:54;100804.38;;;9.79;100.00
51229;BME280;37304;52.216;6.874;2023-03-18T22:51:58;100800.97;;;9.78;100.00
51229;BME280;37304;52.216;6.874;2023-03-18T22:56:58;100803.59;;;9.73;100.00
51229;BME280;37304;52.216;6.874;2023-03-18T23:01:58;100795.94;;;9.66;100.00
51229;BME280;37304;52.216;6.874;2023-03-18T23:06:59;100797.72;;;9.60;100.00
51229;BME280;37304;52.216;6.874;2023-03-18T23:11:59;100791.81;;;9.51;100.00
51229;BME280;37304;52.216;6.874;2023-03-18T23:17:00;100797.16;;;9.38;100.00
51229;BME280;37304;52.216;6.874;2023-03-18T23:22:00;100796.31;;;9.36;100.00
51229;BME280;37304;52.216;6.874;2023-03-18T23:27:01;100792.94;;;9.29;100.00
51229;BME280;37304;52.216;6.874;2023-03-18T23:32:01;100811.88;;;9.35;100.00
51229;BME280;37304;52.216;6.874;2023-03-18T23:37:01;100801.50;;;9.35;100.00
51229;BME280;37304;52.216;6.874;2023-03-18T23:42:03;100809.28;;;9.36;100.00
51229;BME280;37304;52.216;6.874;2023-03-18T23:47:04;100806.69;;;9.36;100.00
51229;BME280;37304;52.216;6.874;2023-03-18T23:52:07;100805.91;;;9.29;100.00
51229;BME280;37304;52.216;6.874;2023-03-18T23:57:09;100803.25;;;9.32;100.00
